Time;durP1;ratioP1;P1;durP2;ratioP2;P2;SDS_P1;SDS_P2;PMS_P1;PMS_P2;Temp;Humidity;BMP_temperature;BMP_pressure;BME280_temperature;BME280_humidity;BME280_pressure;Samples;Min_cycle;Max_cycle;Signal;HPM_P1;HPM_P2
2023/04/30 00:01:34;;;;;;;4.40;1.75;;;;;;;;;;5058751;28;20094;-85
2023/04/30 00:04:09;;;;;;;2.97;1.90;;;;;;;;;;5062460;28;20083;-86
2023/04/30 00:06:58;;;;;;;2.00;1.30;;;;;;;;;;5064813;28;20135;-87
2023/04/30 00:09:24;;;;;;;1.08;0.98;;;;;;;;;;5062081;28;20032;-85
2023/04/30 00:11:50;;;;;;;2.60;1.83;;;;;;;;;;5062679;28;20481;-86
2023/04/30 00:14:24;;;;;;;3.50;1.40;;;;;;;;;;5057456;28;20032;-86
2023/04/30 00:16:58;;;;;;;1.00;0.90;;;;;;;;;;5059267;28;20099;-83
2023/04/30 00:19:23;;;;;;;3.88;1.60;;;;;;;;;;5062929;28;20036;-84
2023/04/30 00:21:52;;;;;;;3.95;1.33;;;;;;;;;;5063381;28;20480;-84
2023/04/30 00:24:30;;;;;;;2.75;1.40;;;;;;;;;;5060078;28;20020;-83
2023/04/30 00:26:56;;;;;;;4.75;2.53;;;;;;;;;;5061502;28;20669;-84
2023/04/30 00:29:21;;;;;;;2.63;1.40;;;;;;;;;;5059247;28;20064;-84
2023/04/30 00:31:54;;;;;;;1.77;1.02;;;;;;;;;;5058174;28;20035;-83
2023/04/30 00:34:20;;;;;;;1.92;1.33;;;;;;;;;;5056295;28;20037;-83
2023/04/30 00:36:45;;;;;;;2.45;1.60;;;;;;;;;;5059751;28;20043;-83
2023/04/30 00:39:15;;;;;;;1.55;1.10;;;;;;;;;;5061208;28;20040;-84
2023/04/30 00:41:42;;;;;;;2.10;1.50;;;;;;;;;;5056918;28;20017;-83
2023/04/30 00:44:15;;;;;;;2.00;1.58;;;;;;;;;;5061783;28;20028;-83
2023/04/30 00:46:46;;;;;;;3.50;1.30;;;;;;;;;;5060048;28;20025;-83
2023/04/30 00:49:11;;;;;;;1.65;1.23;;;;;;;;;;5060841;28;20029;-82
2023/04/30 00:51:40;;;;;;;2.40;1.50;;;;;;;;;;5060352;28;20036;-84
2023/04/30 00:54:06;;;;;;;2.83;1.30;;;;;;;;;;5064608;28;20036;-85
2023/04/30 00:56:32;;;;;;;2.60;1.67;;;;;;;;;;5052488;28;20028;-84
2023/04/30 00:58:58;;;;;;;1.83;1.38;;;;;;;;;;5063641;28;20393;-84
2023/04/30 01:01:32;;;;;;;3.08;1.42;;;;;;;;;;5059681;28;20049;-85
2023/04/30 01:03:59;;;;;;;1.48;1.23;;;;;;;;;;5060323;28;20492;-84
2023/04/30 01:06:25;;;;;;;2.15;1.63;;;;;;;;;;5052713;28;20495;-84
2023/04/30 01:08:52;;;;;;;1.38;1.23;;;;;;;;;;5057956;28;20021;-85
2023/04/30 01:11:59;;;;;;;1.38;1.13;;;;;;;;;;5060116;28;20711;-85
2023/04/30 01:14:29;;;;;;;1.17;1.00;;;;;;;;;;5054713;28;20079;-85
2023/04/30 01:17:01;;;;;;;2.85;1.30;;;;;;;;;;5054628;28;20071;-83
2023/04/30 01:19:29;;;;;;;3.17;1.88;;;;;;;;;;5058177;28;20118;-84
2023/04/30 01:22:00;;;;;;;1.45;1.00;;;;;;;;;;5060942;28;20049;-83
2023/04/30 01:24:48;;;;;;;1.65;1.00;;;;;;;;;;5063553;28;20098;-84
2023/04/30 01:27:28;;;;;;;1.02;0.77;;;;;;;;;;5054478;28;20055;-84
2023/04/30 01:30:06;;;;;;;1.52;1.42;;;;;;;;;;5067210;28;20024;-85
2023/04/30 01:32:32;;;;;;;12.52;2.80;;;;;;;;;;5057268;28;20045;-86
2023/04/30 01:34:58;;;;;;;3.38;1.80;;;;;;;;;;5059410;28;20134;-84
2023/04/30 01:37:47;;;;;;;2.85;1.45;;;;;;;;;;5057076;28;20494;-85
2023/04/30 01:40:30;;;;;;;1.50;1.35;;;;;;;;;;5063352;28;20468;-84
2023/04/30 01:43:11;;;;;;;1.73;0.85;;;;;;;;;;5058641;28;20095;-84
2023/04/30 01:46:15;;;;;;;1.75;1.15;;;;;;;;;;5061945;28;20043;-84
2023/04/30 01:48:44;;;;;;;2.80;2.03;;;;;;;;;;5037707;28;20040;-86
2023/04/30 01:51:24;;;;;;;7.32;1.40;;;;;;;;;;5057814;28;20025;-85
2023/04/30 01:53:58;;;;;;;2.78;1.30;;;;;;;;;;5060241;28;20162;-85
2023/04/30 01:56:31;;;;;;;1.08;0.98;;;;;;;;;;5055179;28;20040;-84
2023/04/30 01:58:58;;;;;;;2.33;1.20;;;;;;;;;;5056450;28;20044;-85
2023/04/30 02:01:29;;;;;;;1.70;1.30;;;;;;;;;;5056017;28;20052;-85
2023/04/30 02:03:55;;;;;;;1.10;0.98;;;;;;;;;;5066166;28;20036;-85
2023/04/30 02:06:25;;;;;;;1.45;1.00;;;;;;;;;;5065397;28;20456;-84
2023/04/30 02:08:51;;;;;;;1.75;1.45;;;;;;;;;;5067802;28;20063;-85
2023/04/30 02:11:20;;;;;;;3.00;1.88;;;;;;;;;;5059305;28;20388;-84
2023/04/30 02:13:47;;;;;;;1.45;1.35;;;;;;;;;;5058758;28;20041;-84
2023/04/30 02:16:13;;;;;;;2.17;1.42;;;;;;;;;;5064474;28;20207;-85
2023/04/30 02:18:42;;;;;;;3.30;2.10;;;;;;;;;;5061900;28;20562;-85
2023/04/30 02:21:12;;;;;;;1.60;1.20;;;;;;;;;;5064149;28;20017;-85
2023/04/30 02:23:40;;;;;;;3.47;1.98;;;;;;;;;;5063758;28;20033;-84
2023/04/30 02:26:11;;;;;;;5.35;1.60;;;;;;;;;;5069708;28;20035;-85
2023/04/30 02:31:25;;;;;;;2.05;1.40;;;;;;;;;;5069441;28;20056;-85
2023/04/30 02:33:51;;;;;;;0.80;0.80;;;;;;;;;;5058005;28;20060;-85
2023/04/30 02:36:17;;;;;;;1.67;1.33;;;;;;;;;;5060369;28;20029;-85
2023/04/30 02:38:42;;;;;;;2.85;1.98;;;;;;;;;;5062612;28;20087;-85
2023/04/30 02:41:08;;;;;;;2.53;1.70;;;;;;;;;;5063695;28;20029;-86
2023/04/30 02:43:34;;;;;;;2.22;1.77;;;;;;;;;;5063606;28;20184;-86
2023/04/30 02:46:04;;;;;;;2.33;1.45;;;;;;;;;;5064506;28;20484;-85
2023/04/30 02:48:30;;;;;;;2.47;1.85;;;;;;;;;;5066760;28;20028;-84
2023/04/30 02:50:56;;;;;;;1.75;1.45;;;;;;;;;;5067086;28;20112;-84
2023/04/30 02:53:27;;;;;;;1.30;1.20;;;;;;;;;;5054982;28;20163;-83
2023/04/30 02:55:55;;;;;;;2.33;1.77;;;;;;;;;;5061804;28;20095;-86
2023/04/30 02:58:20;;;;;;;1.73;1.48;;;;;;;;;;5067559;28;20028;-83
2023/04/30 03:00:49;;;;;;;3.80;2.28;;;;;;;;;;5059289;28;20064;-85
2023/04/30 03:03:15;;;;;;;3.47;2.15;;;;;;;;;;5056138;28;20024;-85
2023/04/30 03:05:43;;;;;;;3.30;2.10;;;;;;;;;;5065165;28;20031;-86
2023/04/30 03:08:08;;;;;;;3.10;2.15;;;;;;;;;;5059259;28;20504;-85
2023/04/30 03:10:34;;;;;;;2.47;1.63;;;;;;;;;;5067504;28;20059;-84
2023/04/30 03:13:13;;;;;;;3.22;2.53;;;;;;;;;;5062692;28;20036;-85
2023/04/30 03:15:39;;;;;;;1.88;1.35;;;;;;;;;;5066624;28;20468;-84
2023/04/30 03:18:07;;;;;;;3.75;2.13;;;;;;;;;;5059451;28;20033;-86
2023/04/30 03:20:38;;;;;;;3.03;2.00;;;;;;;;;;5057744;28;20063;-85
2023/04/30 03:23:06;;;;;;;3.55;2.20;;;;;;;;;;5060513;28;20515;-88
2023/04/30 03:25:32;;;;;;;8.63;2.63;;;;;;;;;;5059748;28;20025;-84
2023/04/30 03:28:18;;;;;;;3.42;2.42;;;;;;;;;;5062333;28;20472;-86
2023/04/30 03:30:43;;;;;;;3.58;2.50;;;;;;;;;;5061940;28;20456;-84
2023/04/30 03:33:09;;;;;;;2.88;1.75;;;;;;;;;;5061380;28;20065;-84
2023/04/30 03:35:35;;;;;;;4.72;2.38;;;;;;;;;;5054939;28;20048;-82
2023/04/30 03:38:09;;;;;;;2.75;2.05;;;;;;;;;;5058370;28;20063;-86
2023/04/30 03:40:37;;;;;;;3.67;2.13;;;;;;;;;;5062273;28;20035;-84
2023/04/30 03:43:05;;;;;;;7.80;2.70;;;;;;;;;;5060983;28;20024;-84
2023/04/30 03:45:40;;;;;;;4.00;2.40;;;;;;;;;;5063438;28;20052;-85
2023/04/30 03:48:12;;;;;;;3.00;1.63;;;;;;;;;;5055948;28;20031;-85
2023/04/30 03:50:43;;;;;;;3.22;2.22;;;;;;;;;;5063136;28;20093;-85
2023/04/30 03:53:11;;;;;;;4.22;2.30;;;;;;;;;;5066433;28;20052;-86
2023/04/30 03:55:46;;;;;;;4.40;2.45;;;;;;;;;;5061269;28;20036;-84
2023/04/30 03:58:14;;;;;;;4.80;2.30;;;;;;;;;;5063171;28;20480;-86
2023/04/30 04:00:44;;;;;;;3.83;2.08;;;;;;;;;;5058972;28;20075;-86
2023/04/30 04:03:11;;;;;;;2.78;2.13;;;;;;;;;;5056258;28;20020;-86
2023/04/30 04:05:39;;;;;;;3.17;2.40;;;;;;;;;;5065031;28;20388;-86
2023/04/30 04:08:09;;;;;;;4.13;2.55;;;;;;;;;;5056457;28;20063;-87
2023/04/30 04:10:41;;;;;;;5.90;2.90;;;;;;;;;;5058006;28;20027;-87
2023/04/30 04:13:10;;;;;;;3.03;2.72;;;;;;;;;;5056806;28;20042;-87
2023/04/30 04:15:35;;;;;;;4.32;2.50;;;;;;;;;;5060551;28;20028;-85
2023/04/30 04:18:01;;;;;;;3.38;2.60;;;;;;;;;;5062470;28;20032;-84
2023/04/30 04:20:28;;;;;;;3.83;2.53;;;;;;;;;;5062847;28;20029;-85
2023/04/30 04:22:54;;;;;;;6.28;2.85;;;;;;;;;;5062976;28;20063;-86
2023/04/30 04:25:23;;;;;;;8.02;3.85;;;;;;;;;;5063154;28;20036;-86
2023/04/30 04:27:51;;;;;;;6.25;3.15;;;;;;;;;;5063394;28;20017;-86
2023/04/30 04:30:16;;;;;;;5.68;3.40;;;;;;;;;;5057925;28;20025;-86
2023/04/30 04:32:45;;;;;;;6.80;3.60;;;;;;;;;;5061496;28;20446;-86
2023/04/30 04:35:15;;;;;;;6.20;3.33;;;;;;;;;;5057780;28;20033;-86
2023/04/30 04:37:41;;;;;;;7.25;3.83;;;;;;;;;;5061329;28;20077;-84
2023/04/30 04:40:07;;;;;;;5.88;3.53;;;;;;;;;;5056266;28;20036;-85
2023/04/30 04:42:33;;;;;;;5.03;3.05;;;;;;;;;;5060511;28;20054;-85
2023/04/30 04:44:58;;;;;;;4.78;3.53;;;;;;;;;;5060552;28;20032;-86
2023/04/30 04:47:23;;;;;;;7.25;4.43;;;;;;;;;;5059801;28;20025;-85
2023/04/30 04:49:49;;;;;;;9.52;4.68;;;;;;;;;;5058225;28;20021;-84
2023/04/30 04:52:14;;;;;;;10.57;4.22;;;;;;;;;;5061711;28;20476;-86
2023/04/30 04:54:40;;;;;;;8.38;5.35;;;;;;;;;;5065111;28;20020;-83
2023/04/30 04:57:05;;;;;;;6.55;3.85;;;;;;;;;;5057430;28;20024;-83
2023/04/30 04:59:30;;;;;;;7.68;4.03;;;;;;;;;;5063565;28;20024;-84
2023/04/30 05:01:56;;;;;;;12.20;5.57;;;;;;;;;;5052871;28;20048;-88
2023/04/30 05:04:23;;;;;;;8.35;4.72;;;;;;;;;;5063691;28;20455;-82
2023/04/30 05:06:48;;;;;;;8.23;4.68;;;;;;;;;;5050862;28;20024;-84
2023/04/30 05:09:14;;;;;;;8.95;3.67;;;;;;;;;;5055970;28;20035;-84
2023/04/30 05:11:40;;;;;;;6.20;3.60;;;;;;;;;;5061723;28;20024;-86
2023/04/30 05:14:06;;;;;;;5.75;3.50;;;;;;;;;;5049797;28;20443;-84
2023/04/30 05:16:31;;;;;;;13.25;3.67;;;;;;;;;;5053962;28;20029;-85
2023/04/30 05:18:57;;;;;;;8.40;4.47;;;;;;;;;;5060045;28;20021;-84
2023/04/30 05:21:22;;;;;;;7.72;3.67;;;;;;;;;;5055791;28;20107;-83
2023/04/30 05:23:47;;;;;;;4.40;2.55;;;;;;;;;;5062124;28;20021;-83
2023/04/30 05:26:13;;;;;;;11.15;3.33;;;;;;;;;;5062635;28;20100;-84
2023/04/30 05:28:38;;;;;;;6.88;3.75;;;;;;;;;;5061366;28;20119;-83
2023/04/30 05:31:04;;;;;;;6.22;3.90;;;;;;;;;;5061496;28;20100;-85
2023/04/30 05:33:29;;;;;;;9.80;4.90;;;;;;;;;;5059786;28;20025;-85
2023/04/30 05:35:55;;;;;;;7.43;4.22;;;;;;;;;;5054104;28;20033;-86
2023/04/30 05:38:20;;;;;;;7.07;4.45;;;;;;;;;;5061257;28;20361;-85
2023/04/30 05:40:46;;;;;;;5.78;4.30;;;;;;;;;;5054432;28;20108;-84
2023/04/30 05:43:11;;;;;;;7.10;3.90;;;;;;;;;;5055903;28;20357;-83
2023/04/30 05:45:36;;;;;;;5.80;3.70;;;;;;;;;;5054071;28;20056;-84
2023/04/30 05:48:03;;;;;;;4.70;2.72;;;;;;;;;;5055670;28;20453;-82
2023/04/30 05:50:28;;;;;;;7.15;3.60;;;;;;;;;;5060911;28;20032;-85
2023/04/30 05:52:53;;;;;;;16.00;3.55;;;;;;;;;;5066197;28;20033;-84
2023/04/30 05:55:19;;;;;;;12.10;2.95;;;;;;;;;;5048882;28;20036;-83
2023/04/30 05:57:44;;;;;;;7.07;4.57;;;;;;;;;;5057646;28;20397;-84
2023/04/30 06:00:11;;;;;;;7.80;4.43;;;;;;;;;;5053337;28;20063;-84
2023/04/30 06:02:36;;;;;;;8.48;5.28;;;;;;;;;;5051262;28;20220;-83
2023/04/30 06:05:02;;;;;;;6.53;4.25;;;;;;;;;;5057345;28;20043;-85
2023/04/30 06:07:28;;;;;;;6.03;4.13;;;;;;;;;;5057347;28;20025;-84
2023/04/30 06:09:53;;;;;;;7.30;4.18;;;;;;;;;;5055117;28;20028;-84
2023/04/30 06:12:19;;;;;;;9.13;4.63;;;;;;;;;;5058134;28;20040;-84
2023/04/30 06:14:44;;;;;;;14.35;4.47;;;;;;;;;;5058325;28;20108;-86
2023/04/30 06:17:11;;;;;;;9.32;5.25;;;;;;;;;;5053932;28;20779;-83
2023/04/30 06:19:37;;;;;;;5.35;3.92;;;;;;;;;;5050785;28;20040;-84
2023/04/30 06:22:03;;;;;;;9.40;4.72;;;;;;;;;;5054963;28;20020;-82
2023/04/30 06:24:29;;;;;;;5.90;3.75;;;;;;;;;;5059565;28;20105;-85
2023/04/30 06:26:55;;;;;;;6.07;3.83;;;;;;;;;;5057585;28;20016;-84
2023/04/30 06:29:23;;;;;;;7.88;3.95;;;;;;;;;;5062191;28;20028;-84
2023/04/30 06:31:50;;;;;;;16.50;4.22;;;;;;;;;;5048982;28;20068;-82
2023/04/30 06:34:15;;;;;;;10.30;5.38;;;;;;;;;;5049904;28;20056;-84
2023/04/30 06:36:41;;;;;;;9.45;5.30;;;;;;;;;;5052024;28;20056;-83
2023/04/30 06:39:06;;;;;;;8.48;4.80;;;;;;;;;;5054523;28;20079;-82
2023/04/30 06:41:32;;;;;;;6.32;4.85;;;;;;;;;;5059030;28;20024;-83
2023/04/30 06:44:00;;;;;;;7.05;4.55;;;;;;;;;;5053683;28;20411;-83
2023/04/30 06:46:26;;;;;;;7.90;4.50;;;;;;;;;;5049868;28;20036;-84
2023/04/30 06:48:51;;;;;;;7.35;4.63;;;;;;;;;;5056473;28;20033;-85
2023/04/30 06:51:17;;;;;;;8.07;5.88;;;;;;;;;;5055902;28;20033;-82
2023/04/30 06:53:42;;;;;;;8.45;4.70;;;;;;;;;;5053397;28;20033;-83
2023/04/30 06:56:08;;;;;;;10.07;5.10;;;;;;;;;;5061538;28;20081;-85
2023/04/30 06:58:33;;;;;;;6.70;5.15;;;;;;;;;;5056148;28;20070;-84
2023/04/30 07:00:59;;;;;;;13.55;6.15;;;;;;;;;;5067274;28;20044;-84
2023/04/30 07:03:26;;;;;;;14.25;5.00;;;;;;;;;;5060527;28;20465;-83
2023/04/30 07:05:52;;;;;;;7.20;4.00;;;;;;;;;;5056725;28;20371;-86
2023/04/30 07:08:18;;;;;;;11.38;5.35;;;;;;;;;;5062557;28;20017;-85
2023/04/30 07:10:43;;;;;;;9.02;4.28;;;;;;;;;;5062541;28;20357;-84
2023/04/30 07:13:09;;;;;;;7.38;4.80;;;;;;;;;;5062306;28;20032;-84
2023/04/30 07:15:34;;;;;;;6.38;4.13;;;;;;;;;;5049157;28;20036;-85
2023/04/30 07:18:00;;;;;;;8.77;4.75;;;;;;;;;;5058152;28;20086;-84
2023/04/30 07:20:25;;;;;;;8.27;4.65;;;;;;;;;;5066735;28;20055;-84
2023/04/30 07:22:51;;;;;;;9.00;4.38;;;;;;;;;;5055313;28;20025;-84
2023/04/30 07:25:17;;;;;;;8.43;4.50;;;;;;;;;;5056248;28;20029;-84
2023/04/30 07:27:43;;;;;;;10.10;5.40;;;;;;;;;;5063467;28;20728;-85
2023/04/30 07:30:09;;;;;;;9.05;4.22;;;;;;;;;;5059547;28;20035;-83
2023/04/30 07:32:36;;;;;;;9.18;4.75;;;;;;;;;;5065061;28;20331;-84
2023/04/30 07:35:03;;;;;;;4.20;3.15;;;;;;;;;;5061816;28;20108;-85
2023/04/30 07:37:29;;;;;;;7.85;4.82;;;;;;;;;;5066768;28;20025;-85
2023/04/30 07:39:54;;;;;;;4.80;3.50;;;;;;;;;;5056681;28;20560;-84
2023/04/30 07:42:20;;;;;;;16.35;3.67;;;;;;;;;;5058514;28;20415;-83
2023/04/30 07:44:45;;;;;;;8.38;3.60;;;;;;;;;;5063369;28;20652;-85
2023/04/30 07:47:10;;;;;;;7.00;4.22;;;;;;;;;;5058402;28;20029;-83
2023/04/30 07:49:36;;;;;;;9.55;4.78;;;;;;;;;;5059558;28;20059;-84
2023/04/30 07:52:02;;;;;;;5.53;3.15;;;;;;;;;;5065048;28;20029;-84
2023/04/30 07:54:28;;;;;;;5.55;3.22;;;;;;;;;;5055151;28;20025;-84
2023/04/30 07:56:53;;;;;;;8.73;3.60;;;;;;;;;;5055635;28;20033;-85
2023/04/30 07:59:20;;;;;;;9.25;4.38;;;;;;;;;;5055940;28;20043;-84
2023/04/30 08:01:45;;;;;;;8.27;2.35;;;;;;;;;;5061497;28;20094;-84
2023/04/30 08:04:11;;;;;;;6.70;3.85;;;;;;;;;;5065874;28;20115;-85
2023/04/30 08:06:36;;;;;;;10.25;3.30;;;;;;;;;;5065265;28;20041;-85
2023/04/30 08:09:02;;;;;;;4.95;3.13;;;;;;;;;;5054745;28;20040;-84
2023/04/30 08:11:28;;;;;;;6.63;3.83;;;;;;;;;;5059699;28;21557;-83
2023/04/30 08:13:54;;;;;;;10.60;3.25;;;;;;;;;;5059463;28;20029;-84
2023/04/30 08:16:19;;;;;;;3.70;2.40;;;;;;;;;;5064608;28;20572;-85
2023/04/30 08:18:45;;;;;;;13.52;2.38;;;;;;;;;;5056971;28;20029;-85
2023/04/30 08:21:14;;;;;;;3.60;2.42;;;;;;;;;;5055079;28;20029;-83
2023/04/30 08:23:40;;;;;;;5.03;2.47;;;;;;;;;;5057568;28;20090;-83
2023/04/30 08:26:06;;;;;;;3.25;2.20;;;;;;;;;;5059154;28;20041;-83
2023/04/30 08:28:31;;;;;;;4.05;2.40;;;;;;;;;;5061226;28;20024;-82
2023/04/30 08:30:57;;;;;;;3.40;1.80;;;;;;;;;;5054740;28;20041;-83
2023/04/30 08:33:22;;;;;;;4.30;2.65;;;;;;;;;;5058426;28;20029;-82
2023/04/30 08:35:47;;;;;;;5.13;2.42;;;;;;;;;;5054112;28;20029;-86
2023/04/30 08:38:13;;;;;;;2.92;2.17;;;;;;;;;;5062752;28;20387;-85
2023/04/30 08:40:39;;;;;;;3.40;2.15;;;;;;;;;;5058606;28;20077;-85
2023/04/30 08:43:10;;;;;;;2.65;2.08;;;;;;;;;;5057218;28;20442;-85
2023/04/30 08:45:36;;;;;;;3.63;2.28;;;;;;;;;;5053983;28;20797;-85
2023/04/30 08:48:03;;;;;;;2.30;1.88;;;;;;;;;;5056372;28;20048;-86
2023/04/30 08:50:29;;;;;;;4.05;2.38;;;;;;;;;;5053832;28;20526;-86
2023/04/30 08:52:57;;;;;;;3.22;1.98;;;;;;;;;;5056052;28;20023;-86
2023/04/30 08:55:25;;;;;;;3.85;1.75;;;;;;;;;;5056427;28;20036;-86
2023/04/30 08:57:50;;;;;;;5.82;1.80;;;;;;;;;;5056135;28;20051;-87
2023/04/30 09:00:16;;;;;;;2.85;1.67;;;;;;;;;;5059560;28;20059;-85
2023/04/30 09:02:42;;;;;;;3.45;1.80;;;;;;;;;;5054328;28;20028;-87
2023/04/30 09:05:12;;;;;;;3.22;2.35;;;;;;;;;;5053973;28;20679;-89
2023/04/30 09:07:40;;;;;;;2.35;1.77;;;;;;;;;;5058946;28;20480;-89
2023/04/30 09:10:17;;;;;;;8.82;1.98;;;;;;;;;;5055378;28;20017;-86
2023/04/30 09:12:44;;;;;;;2.42;1.80;;;;;;;;;;5060975;28;20029;-88
2023/04/30 09:15:11;;;;;;;2.65;1.67;;;;;;;;;;5060061;28;20499;-86
2023/04/30 09:17:37;;;;;;;4.93;1.83;;;;;;;;;;5066042;28;20137;-88
2023/04/30 09:20:10;;;;;;;3.85;1.95;;;;;;;;;;5056263;28;20541;-89
2023/04/30 09:22:38;;;;;;;3.33;2.28;;;;;;;;;;5058231;28;20565;-88
2023/04/30 09:25:04;;;;;;;1.63;1.00;;;;;;;;;;5059446;28;20064;-85
2023/04/30 09:27:30;;;;;;;3.10;2.35;;;;;;;;;;5060913;28;20032;-88
2023/04/30 09:29:55;;;;;;;2.35;1.63;;;;;;;;;;5062574;28;20030;-88
2023/04/30 09:32:21;;;;;;;4.57;2.00;;;;;;;;;;5062253;28;20028;-86
2023/04/30 09:34:46;;;;;;;3.50;2.42;;;;;;;;;;5059667;28;20480;-86
2023/04/30 09:37:12;;;;;;;4.90;1.92;;;;;;;;;;5054266;28;20028;-85
2023/04/30 09:39:48;;;;;;;3.17;2.05;;;;;;;;;;5057659;28;20079;-83
2023/04/30 09:42:14;;;;;;;2.80;1.80;;;;;;;;;;5060933;28;20028;-84
2023/04/30 09:44:40;;;;;;;2.13;1.67;;;;;;;;;;5062205;28;20029;-85
2023/04/30 09:47:18;;;;;;;3.78;1.98;;;;;;;;;;5056707;28;20809;-84
2023/04/30 09:49:50;;;;;;;2.25;1.63;;;;;;;;;;5056612;28;20024;-84
2023/04/30 09:52:16;;;;;;;3.03;1.55;;;;;;;;;;5052344;28;20059;-84
2023/04/30 09:54:43;;;;;;;2.83;1.80;;;;;;;;;;5054694;28;20372;-86
2023/04/30 09:57:11;;;;;;;3.97;1.90;;;;;;;;;;5056567;28;20029;-84
2023/04/30 09:59:38;;;;;;;2.90;2.03;;;;;;;;;;5061131;28;20048;-84
2023/04/30 10:02:06;;;;;;;2.00;1.60;;;;;;;;;;5062346;28;20048;-85
2023/04/30 10:04:35;;;;;;;2.38;1.63;;;;;;;;;;5055018;28;20036;-86
2023/04/30 10:07:04;;;;;;;2.70;2.03;;;;;;;;;;5058295;28;20472;-83
2023/04/30 10:09:38;;;;;;;3.50;2.22;;;;;;;;;;5058778;28;20457;-85
2023/04/30 10:12:07;;;;;;;3.72;2.05;;;;;;;;;;5056741;28;20426;-86
2023/04/30 10:14:50;;;;;;;3.55;1.90;;;;;;;;;;5054375;28;20123;-86
2023/04/30 10:17:17;;;;;;;3.28;1.73;;;;;;;;;;5057717;28;20024;-87
2023/04/30 10:19:47;;;;;;;2.38;1.70;;;;;;;;;;5057065;28;20040;-82
2023/04/30 10:22:12;;;;;;;;;;;;;;;;;;5061506;28;20337;-85
2023/04/30 10:24:38;;;;;;;2.55;1.67;;;;;;;;;;5056622;28;19928;-86
2023/04/30 10:27:03;;;;;;;1.45;1.27;;;;;;;;;;5065077;28;20039;-84
2023/04/30 10:29:29;;;;;;;2.88;2.05;;;;;;;;;;5060282;28;20047;-86
2023/04/30 10:31:55;;;;;;;3.15;2.17;;;;;;;;;;5056624;28;20485;-85
2023/04/30 10:34:47;;;;;;;3.65;2.25;;;;;;;;;;5058009;28;20456;-87
2023/04/30 10:37:21;;;;;;;2.35;1.85;;;;;;;;;;5055427;28;20064;-85
2023/04/30 10:39:47;;;;;;;2.90;1.77;;;;;;;;;;5058845;28;20167;-86
2023/04/30 10:42:12;;;;;;;4.10;2.20;;;;;;;;;;5060965;28;20028;-85
2023/04/30 10:44:38;;;;;;;3.70;2.90;;;;;;;;;;5061281;28;20024;-84
2023/04/30 10:47:05;;;;;;;7.43;3.08;;;;;;;;;;5057483;28;20026;-86
2023/04/30 10:49:31;;;;;;;3.33;2.63;;;;;;;;;;5056191;28;20532;-86
2023/04/30 10:52:02;;;;;;;4.18;3.30;;;;;;;;;;5058430;28;20108;-86
2023/04/30 10:54:34;;;;;;;3.85;2.95;;;;;;;;;;5075282;28;20116;-87
2023/04/30 10:57:12;;;;;;;6.20;3.75;;;;;;;;;;5062800;28;20021;-87
2023/04/30 11:00:08;;;;;;;5.55;2.63;;;;;;;;;;5059366;28;20051;-85
2023/04/30 11:02:46;;;;;;;8.27;3.28;;;;;;;;;;5055011;28;20037;-84
2023/04/30 11:05:16;;;;;;;4.82;3.15;;;;;;;;;;5058995;28;20040;-87
2023/04/30 11:07:56;;;;;;;3.60;1.98;;;;;;;;;;5063644;28;20028;-86
2023/04/30 11:10:24;;;;;;;4.28;2.63;;;;;;;;;;5059942;28;20397;-87
2023/04/30 11:12:51;;;;;;;2.00;1.75;;;;;;;;;;5060463;28;20021;-84
2023/04/30 11:15:19;;;;;;;4.15;2.25;;;;;;;;;;5061278;28;20040;-88
2023/04/30 11:17:48;;;;;;;1.70;1.45;;;;;;;;;;5059133;28;20372;-86
2023/04/30 11:20:19;;;;;;;8.98;2.45;;;;;;;;;;5056194;28;20100;-84
2023/04/30 11:22:44;;;;;;;2.92;2.15;;;;;;;;;;5060726;28;20028;-84
2023/04/30 11:25:12;;;;;;;3.38;2.30;;;;;;;;;;5058122;28;20051;-86
2023/04/30 11:27:41;;;;;;;2.28;1.50;;;;;;;;;;5059992;28;20107;-86
2023/04/30 11:30:19;;;;;;;5.20;2.45;;;;;;;;;;5062627;28;20055;-85
2023/04/30 11:32:51;;;;;;;2.60;1.80;;;;;;;;;;5056652;28;20025;-84
2023/04/30 11:35:18;;;;;;;2.10;1.77;;;;;;;;;;5054772;28;20075;-84
2023/04/30 11:37:44;;;;;;;3.72;1.90;;;;;;;;;;5060184;28;20048;-83
2023/04/30 11:40:11;;;;;;;3.05;2.20;;;;;;;;;;5057192;28;20490;-84
2023/04/30 11:42:45;;;;;;;4.07;1.80;;;;;;;;;;5063985;28;20027;-84
2023/04/30 11:45:16;;;;;;;3.92;2.45;;;;;;;;;;5057290;28;20087;-84
2023/04/30 11:47:50;;;;;;;2.78;1.80;;;;;;;;;;5057352;28;20082;-84
2023/04/30 11:50:28;;;;;;;5.22;2.05;;;;;;;;;;5058617;28;20029;-82
2023/04/30 11:52:56;;;;;;;2.85;1.60;;;;;;;;;;5056555;28;20535;-82
2023/04/30 11:55:26;;;;;;;3.80;2.13;;;;;;;;;;5054267;28;20373;-81
2023/04/30 11:57:54;;;;;;;2.70;1.60;;;;;;;;;;5052507;28;20511;-85
2023/04/30 12:00:24;;;;;;;2.85;2.03;;;;;;;;;;5049432;28;20082;-83
2023/04/30 12:02:50;;;;;;;3.53;2.03;;;;;;;;;;5052932;28;20130;-83
2023/04/30 12:05:23;;;;;;;2.15;1.63;;;;;;;;;;5050653;28;20025;-81
2023/04/30 12:08:05;;;;;;;2.40;1.80;;;;;;;;;;5049993;28;20024;-82
2023/04/30 12:10:31;;;;;;;2.20;1.50;;;;;;;;;;5050193;28;20025;-82
2023/04/30 12:12:57;;;;;;;2.50;1.58;;;;;;;;;;5057878;28;20079;-86
2023/04/30 12:15:27;;;;;;;3.00;1.23;;;;;;;;;;5053080;28;20053;-85
2023/04/30 12:17:58;;;;;;;2.45;1.42;;;;;;;;;;5059720;28;20036;-83
2023/04/30 12:20:30;;;;;;;2.55;2.03;;;;;;;;;;5058626;28;20028;-84
2023/04/30 12:22:57;;;;;;;2.88;1.98;;;;;;;;;;5052004;28;20508;-85
2023/04/30 12:25:22;;;;;;;2.63;1.70;;;;;;;;;;5059385;28;20515;-85
2023/04/30 12:27:50;;;;;;;8.70;2.67;;;;;;;;;;5056902;28;20029;-84
2023/04/30 12:30:29;;;;;;;2.95;1.70;;;;;;;;;;5062565;28;20025;-84
2023/04/30 12:32:57;;;;;;;3.03;2.03;;;;;;;;;;5061971;28;20141;-83
2023/04/30 12:35:23;;;;;;;5.25;2.88;;;;;;;;;;5059397;28;20036;-83
2023/04/30 12:38:00;;;;;;;4.57;2.30;;;;;;;;;;5054941;28;20078;-84
2023/04/30 12:40:26;;;;;;;2.53;1.70;;;;;;;;;;5059411;28;20069;-84
2023/04/30 12:43:03;;;;;;;2.22;1.55;;;;;;;;;;5060483;28;20119;-85
2023/04/30 12:45:54;;;;;;;2.58;1.85;;;;;;;;;;5062359;28;20456;-85
2023/04/30 12:48:24;;;;;;;3.33;2.10;;;;;;;;;;5055702;28;20044;-85
2023/04/30 12:51:03;;;;;;;4.10;1.98;;;;;;;;;;5062031;28;20033;-85
2023/04/30 12:53:30;;;;;;;3.10;1.80;;;;;;;;;;5059323;28;20024;-85
2023/04/30 12:56:15;;;;;;;3.17;1.60;;;;;;;;;;5059499;28;20028;-84
2023/04/30 12:58:47;;;;;;;1.75;1.35;;;;;;;;;;5056485;28;20025;-85
2023/04/30 13:01:15;;;;;;;3.15;1.77;;;;;;;;;;5063167;28;20048;-85
2023/04/30 13:03:41;;;;;;;1.85;1.40;;;;;;;;;;5053352;28;20465;-85
2023/04/30 13:06:07;;;;;;;2.67;1.63;;;;;;;;;;5060696;28;20139;-85
2023/04/30 13:08:33;;;;;;;2.20;1.58;;;;;;;;;;5061381;28;20495;-85
2023/04/30 13:10:58;;;;;;;4.03;2.50;;;;;;;;;;5061629;28;20032;-85
2023/04/30 13:13:24;;;;;;;4.80;2.13;;;;;;;;;;5061258;28;20045;-85
2023/04/30 13:15:49;;;;;;;2.95;2.20;;;;;;;;;;5062238;28;20024;-85
2023/04/30 13:18:15;;;;;;;1.80;1.40;;;;;;;;;;5060006;28;20028;-85
2023/04/30 13:20:42;;;;;;;1.70;1.35;;;;;;;;;;5064561;28;20029;-85
2023/04/30 13:23:08;;;;;;;1.75;1.15;;;;;;;;;;5059312;28;20027;-85
2023/04/30 13:25:35;;;;;;;2.38;1.67;;;;;;;;;;5061094;28;20032;-85
2023/04/30 13:28:01;;;;;;;2.45;1.42;;;;;;;;;;5059193;28;20029;-85
2023/04/30 13:30:27;;;;;;;2.33;1.60;;;;;;;;;;5057475;28;20044;-84
2023/04/30 13:32:53;;;;;;;1.60;1.30;;;;;;;;;;5059487;28;20032;-84
2023/04/30 13:35:18;;;;;;;2.47;1.45;;;;;;;;;;5063728;28;20024;-82
2023/04/30 13:37:44;;;;;;;2.45;1.73;;;;;;;;;;5055186;28;20039;-85
2023/04/30 13:40:10;;;;;;;2.60;1.50;;;;;;;;;;5055826;28;20024;-83
2023/04/30 13:42:41;;;;;;;2.70;1.65;;;;;;;;;;5057921;28;20048;-83
2023/04/30 13:45:07;;;;;;;2.00;1.45;;;;;;;;;;5055168;28;20032;-85
2023/04/30 13:47:34;;;;;;;2.72;1.27;;;;;;;;;;5060571;28;20369;-85
2023/04/30 13:50:00;;;;;;;1.98;1.38;;;;;;;;;;5058727;28;20439;-85
2023/04/30 13:52:25;;;;;;;4.63;2.10;;;;;;;;;;5054714;28;20081;-85
2023/04/30 13:54:51;;;;;;;2.10;1.17;;;;;;;;;;5056235;28;20641;-84
2023/04/30 13:57:17;;;;;;;2.28;1.35;;;;;;;;;;5059190;28;20025;-85
2023/04/30 13:59:42;;;;;;;3.35;1.95;;;;;;;;;;5068877;28;20495;-84
2023/04/30 14:02:10;;;;;;;2.38;1.50;;;;;;;;;;5061363;28;20040;-87
2023/04/30 14:04:36;;;;;;;2.80;1.58;;;;;;;;;;5059431;28;20028;-86
2023/04/30 14:07:02;;;;;;;4.15;1.40;;;;;;;;;;5061836;28;20491;-86
2023/04/30 14:09:28;;;;;;;2.50;1.67;;;;;;;;;;5066443;28;20111;-86
2023/04/30 14:11:56;;;;;;;8.95;1.95;;;;;;;;;;5065692;28;20032;-86
2023/04/30 14:14:22;;;;;;;2.13;1.45;;;;;;;;;;5060812;28;20024;-86
2023/04/30 14:16:47;;;;;;;3.95;1.63;;;;;;;;;;5061578;28;20233;-86
2023/04/30 14:19:15;;;;;;;2.10;1.48;;;;;;;;;;5058792;28;20031;-86
2023/04/30 14:21:41;;;;;;;2.05;1.20;;;;;;;;;;5060535;28;20025;-86
2023/04/30 14:24:08;;;;;;;2.17;1.25;;;;;;;;;;5059506;28;20115;-86
2023/04/30 14:26:33;;;;;;;1.95;1.55;;;;;;;;;;5064078;28;20532;-86
2023/04/30 14:28:59;;;;;;;2.08;1.48;;;;;;;;;;5060979;28;20113;-86
2023/04/30 14:31:24;;;;;;;2.40;1.40;;;;;;;;;;5066181;28;20028;-86
2023/04/30 14:33:49;;;;;;;2.45;1.23;;;;;;;;;;5063835;28;20048;-86
2023/04/30 14:36:15;;;;;;;2.80;1.70;;;;;;;;;;5064027;28;20484;-86
2023/04/30 14:38:41;;;;;;;4.68;1.80;;;;;;;;;;5064429;28;20024;-87
2023/04/30 14:41:06;;;;;;;1.88;1.38;;;;;;;;;;5063629;28;20407;-86
2023/04/30 14:43:31;;;;;;;3.13;1.63;;;;;;;;;;5060119;28;20392;-86
2023/04/30 14:45:57;;;;;;;3.25;2.25;;;;;;;;;;5061687;28;20523;-85
2023/04/30 14:48:23;;;;;;;8.43;3.47;;;;;;;;;;5064470;28;20017;-86
2023/04/30 14:50:51;;;;;;;4.00;1.92;;;;;;;;;;5057285;28;20082;-85
2023/04/30 14:53:16;;;;;;;3.42;1.85;;;;;;;;;;5063041;28;20025;-86